sensor_id;sensor_type;location;lat;lon;timestamp;temperature;humidity
45343;DHT22;31077;50.872;4.352;2022-12-18T00:01:31;22.50;26.50
45343;DHT22;31077;50.872;4.352;2022-12-18T00:03:59;22.40;26.90
45343;DHT22;31077;50.872;4.352;2022-12-18T00:06:27;21.40;26.00
45343;DHT22;31077;50.872;4.352;2022-12-18T00:08:54;22.40;26.30
45343;DHT22;31077;50.872;4.352;2022-12-18T00:11:22;22.50;26.40
45343;DHT22;31077;50.872;4.352;2022-12-18T00:13:48;22.50;26.30
45343;DHT22;31077;50.872;4.352;2022-12-18T00:16:17;22.40;26.30
45343;DHT22;31077;50.872;4.352;2022-12-18T00:18:49;21.30;25.80
45343;DHT22;31077;50.872;4.352;2022-12-18T00:21:16;22.40;26.30
45343;DHT22;31077;50.872;4.352;2022-12-18T00:23:43;22.50;26.30
45343;DHT22;31077;50.872;4.352;2022-12-18T00:26:15;22.40;26.20
45343;DHT22;31077;50.872;4.352;2022-12-18T00:28:43;22.40;26.20
45343;DHT22;31077;50.872;4.352;2022-12-18T00:31:13;22.40;26.20
45343;DHT22;31077;50.872;4.352;2022-12-18T00:33:39;22.40;26.20
45343;DHT22;31077;50.872;4.352;2022-12-18T00:36:07;22.30;26.10
45343;DHT22;31077;50.872;4.352;2022-12-18T00:38:35;22.50;26.20
45343;DHT22;31077;50.872;4.352;2022-12-18T00:41:01;22.40;26.10
45343;DHT22;31077;50.872;4.352;2022-12-18T00:43:26;22.40;26.10
45343;DHT22;31077;50.872;4.352;2022-12-18T00:45:52;22.50;26.20
45343;DHT22;31077;50.872;4.352;2022-12-18T00:48:18;22.40;26.00
45343;DHT22;31077;50.872;4.352;2022-12-18T00:50:44;22.40;26.00
45343;DHT22;31077;50.872;4.352;2022-12-18T00:53:10;22.40;26.00
45343;DHT22;31077;50.872;4.352;2022-12-18T00:55:38;22.40;25.90
45343;DHT22;31077;50.872;4.352;2022-12-18T00:58:04;22.40;25.90
45343;DHT22;31077;50.872;4.352;2022-12-18T01:00:30;22.40;25.90
45343;DHT22;31077;50.872;4.352;2022-12-18T01:02:56;22.30;25.90
45343;DHT22;31077;50.872;4.352;2022-12-18T01:05:22;22.50;25.90
45343;DHT22;31077;50.872;4.352;2022-12-18T01:07:47;22.40;25.90
45343;DHT22;31077;50.872;4.352;2022-12-18T01:10:13;22.40;25.90
45343;DHT22;31077;50.872;4.352;2022-12-18T01:12:39;22.40;25.90
45343;DHT22;31077;50.872;4.352;2022-12-18T01:15:06;22.40;25.90
45343;DHT22;31077;50.872;4.352;2022-12-18T01:17:33;22.30;25.80
45343;DHT22;31077;50.872;4.352;2022-12-18T01:19:58;22.40;25.80
45343;DHT22;31077;50.872;4.352;2022-12-18T01:22:24;22.30;25.80
45343;DHT22;31077;50.872;4.352;2022-12-18T01:24:50;22.20;25.70
45343;DHT22;31077;50.872;4.352;2022-12-18T01:27:16;22.30;25.80
45343;DHT22;31077;50.872;4.352;2022-12-18T01:29:42;22.40;25.80
45343;DHT22;31077;50.872;4.352;2022-12-18T01:32:08;22.50;25.70
45343;DHT22;31077;50.872;4.352;2022-12-18T01:34:36;22.40;25.70
45343;DHT22;31077;50.872;4.352;2022-12-18T01:37:05;22.30;25.70
45343;DHT22;31077;50.872;4.352;2022-12-18T01:39:32;22.30;25.70
45343;DHT22;31077;50.872;4.352;2022-12-18T01:41:59;23.00;25.90
45343;DHT22;31077;50.872;4.352;2022-12-18T01:45:03;22.30;25.60
45343;DHT22;31077;50.872;4.352;2022-12-18T01:47:48;22.50;25.70
45343;DHT22;31077;50.872;4.352;2022-12-18T01:50:18;22.30;25.60
45343;DHT22;31077;50.872;4.352;2022-12-18T01:55:31;22.40;25.60
45343;DHT22;31077;50.872;4.352;2022-12-18T01:57:59;22.40;25.50
45343;DHT22;31077;50.872;4.352;2022-12-18T02:00:25;22.20;25.50
45343;DHT22;31077;50.872;4.352;2022-12-18T02:02:53;22.30;25.50
45343;DHT22;31077;50.872;4.352;2022-12-18T02:08:33;22.40;25.60
45343;DHT22;31077;50.872;4.352;2022-12-18T02:11:18;22.40;25.50
45343;DHT22;31077;50.872;4.352;2022-12-18T02:13:48;22.30;25.50
45343;DHT22;31077;50.872;4.352;2022-12-18T02:16:49;22.30;25.50
45343;DHT22;31077;50.872;4.352;2022-12-18T02:22:24;22.40;25.40
45343;DHT22;31077;50.872;4.352;2022-12-18T02:25:13;20.70;24.70
45343;DHT22;31077;50.872;4.352;2022-12-18T02:27:44;22.40;25.50
45343;DHT22;31077;50.872;4.352;2022-12-18T02:30:11;22.30;25.40
45343;DHT22;31077;50.872;4.352;2022-12-18T02:32:43;22.30;25.40
45343;DHT22;31077;50.872;4.352;2022-12-18T02:35:17;22.20;25.30
45343;DHT22;31077;50.872;4.352;2022-12-18T02:37:46;23.50;25.80
45343;DHT22;31077;50.872;4.352;2022-12-18T02:40:13;22.30;25.30
45343;DHT22;31077;50.872;4.352;2022-12-18T02:42:40;22.30;25.30
45343;DHT22;31077;50.872;4.352;2022-12-18T02:45:06;22.40;25.30
45343;DHT22;31077;50.872;4.352;2022-12-18T02:47:36;22.40;25.20
45343;DHT22;31077;50.872;4.352;2022-12-18T02:58:59;22.40;25.30
45343;DHT22;31077;50.872;4.352;2022-12-18T03:01:52;22.30;25.20
45343;DHT22;31077;50.872;4.352;2022-12-18T03:06:55;22.20;25.20
45343;DHT22;31077;50.872;4.352;2022-12-18T03:09:36;22.30;25.20
45343;DHT22;31077;50.872;4.352;2022-12-18T03:12:38;22.30;25.20
45343;DHT22;31077;50.872;4.352;2022-12-18T03:17:44;22.30;25.10
45343;DHT22;31077;50.872;4.352;2022-12-18T03:20:17;22.40;25.10
45343;DHT22;31077;50.872;4.352;2022-12-18T03:22:46;20.90;24.50
45343;DHT22;31077;50.872;4.352;2022-12-18T03:25:14;22.30;25.10
45343;DHT22;31077;50.872;4.352;2022-12-18T03:27:45;22.20;25.00
45343;DHT22;31077;50.872;4.352;2022-12-18T03:30:13;22.40;25.50
45343;DHT22;31077;50.872;4.352;2022-12-18T03:33:05;22.40;25.00
45343;DHT22;31077;50.872;4.352;2022-12-18T03:35:36;24.10;25.70
45343;DHT22;31077;50.872;4.352;2022-12-18T03:38:03;23.60;25.50
45343;DHT22;31077;50.872;4.352;2022-12-18T03:46:40;22.30;25.00
45343;DHT22;31077;50.872;4.352;2022-12-18T03:49:37;22.30;25.00
45343;DHT22;31077;50.872;4.352;2022-12-18T03:52:17;22.30;24.90
45343;DHT22;31077;50.872;4.352;2022-12-18T03:54:45;22.40;25.00
45343;DHT22;31077;50.872;4.352;2022-12-18T03:57:20;22.20;24.80
45343;DHT22;31077;50.872;4.352;2022-12-18T03:59:50;22.20;25.30
45343;DHT22;31077;50.872;4.352;2022-12-18T04:02:18;22.30;24.90
45343;DHT22;31077;50.872;4.352;2022-12-18T04:04:44;22.30;24.90
45343;DHT22;31077;50.872;4.352;2022-12-18T04:07:13;22.30;24.80
45343;DHT22;31077;50.872;4.352;2022-12-18T04:09:41;21.10;24.40
45343;DHT22;31077;50.872;4.352;2022-12-18T04:12:08;22.20;25.00
45343;DHT22;31077;50.872;4.352;2022-12-18T04:14:34;22.20;24.70
45343;DHT22;31077;50.872;4.352;2022-12-18T04:17:01;21.10;24.30
45343;DHT22;31077;50.872;4.352;2022-12-18T04:19:28;20.70;24.10
45343;DHT22;31077;50.872;4.352;2022-12-18T04:21:54;22.40;24.80
45343;DHT22;31077;50.872;4.352;2022-12-18T04:24:20;22.30;24.70
45343;DHT22;31077;50.872;4.352;2022-12-18T04:26:45;22.30;24.70
45343;DHT22;31077;50.872;4.352;2022-12-18T04:29:11;22.40;24.70
45343;DHT22;31077;50.872;4.352;2022-12-18T04:31:37;22.30;24.70
45343;DHT22;31077;50.872;4.352;2022-12-18T04:34:03;22.30;24.60
45343;DHT22;31077;50.872;4.352;2022-12-18T04:36:29;22.30;25.10
45343;DHT22;31077;50.872;4.352;2022-12-18T04:38:55;22.30;24.60
45343;DHT22;31077;50.872;4.352;2022-12-18T04:41:21;22.20;24.60
45343;DHT22;31077;50.872;4.352;2022-12-18T04:43:46;22.30;24.60
45343;DHT22;31077;50.872;4.352;2022-12-18T04:46:12;22.30;24.60
45343;DHT22;31077;50.872;4.352;2022-12-18T04:48:38;22.20;24.50
45343;DHT22;31077;50.872;4.352;2022-12-18T04:51:05;22.40;24.60
45343;DHT22;31077;50.872;4.352;2022-12-18T04:53:31;22.40;24.70
45343;DHT22;31077;50.872;4.352;2022-12-18T04:56:05;22.30;24.60
45343;DHT22;31077;50.872;4.352;2022-12-18T04:58:31;22.20;24.50
45343;DHT22;31077;50.872;4.352;2022-12-18T05:00:57;22.30;24.60
45343;DHT22;31077;50.872;4.352;2022-12-18T05:03:23;22.20;24.50
45343;DHT22;31077;50.872;4.352;2022-12-18T05:05:50;22.30;24.50
45343;DHT22;31077;50.872;4.352;2022-12-18T05:08:16;22.20;24.40
45343;DHT22;31077;50.872;4.352;2022-12-18T05:10:42;22.20;24.90
45343;DHT22;31077;50.872;4.352;2022-12-18T05:13:07;22.30;24.50
45343;DHT22;31077;50.872;4.352;2022-12-18T05:15:34;22.20;24.50
45343;DHT22;31077;50.872;4.352;2022-12-18T05:18:00;22.30;24.50
45343;DHT22;31077;50.872;4.352;2022-12-18T05:20:27;22.20;24.40
45343;DHT22;31077;50.872;4.352;2022-12-18T05:22:54;22.30;24.40
45343;DHT22;31077;50.872;4.352;2022-12-18T05:25:20;22.30;24.40
45343;DHT22;31077;50.872;4.352;2022-12-18T05:27:46;22.30;24.40
45343;DHT22;31077;50.872;4.352;2022-12-18T05:30:13;22.20;24.40
45343;DHT22;31077;50.872;4.352;2022-12-18T05:32:39;22.20;24.40
45343;DHT22;31077;50.872;4.352;2022-12-18T05:35:07;22.30;24.40
45343;DHT22;31077;50.872;4.352;2022-12-18T05:37:33;22.30;24.40
45343;DHT22;31077;50.872;4.352;2022-12-18T05:39:59;22.20;24.40
45343;DHT22;31077;50.872;4.352;2022-12-18T05:42:25;22.20;24.30
45343;DHT22;31077;50.872;4.352;2022-12-18T05:44:51;21.60;24.10
45343;DHT22;31077;50.872;4.352;2022-12-18T05:47:16;22.20;24.30
45343;DHT22;31077;50.872;4.352;2022-12-18T05:49:42;22.30;24.40
45343;DHT22;31077;50.872;4.352;2022-12-18T05:52:09;22.30;24.40
45343;DHT22;31077;50.872;4.352;2022-12-18T05:54:34;22.20;24.40
45343;DHT22;31077;50.872;4.352;2022-12-18T05:57:00;22.30;24.30
45343;DHT22;31077;50.872;4.352;2022-12-18T05:59:26;22.20;24.30
45343;DHT22;31077;50.872;4.352;2022-12-18T06:01:52;22.30;24.30
45343;DHT22;31077;50.872;4.352;2022-12-18T06:04:17;22.20;24.20
45343;DHT22;31077;50.872;4.352;2022-12-18T06:06:43;22.30;24.20
45343;DHT22;31077;50.872;4.352;2022-12-18T06:09:09;22.30;24.20
45343;DHT22;31077;50.872;4.352;2022-12-18T06:11:36;22.20;24.20
45343;DHT22;31077;50.872;4.352;2022-12-18T06:14:03;22.30;24.30
45343;DHT22;31077;50.872;4.352;2022-12-18T06:16:30;22.20;24.20
45343;DHT22;31077;50.872;4.352;2022-12-18T06:19:00;22.20;24.20
45343;DHT22;31077;50.872;4.352;2022-12-18T06:21:26;22.20;24.20
45343;DHT22;31077;50.872;4.352;2022-12-18T06:23:52;22.20;24.20
45343;DHT22;31077;50.872;4.352;2022-12-18T06:26:18;22.30;24.30
45343;DHT22;31077;50.872;4.352;2022-12-18T06:28:44;22.30;24.30
45343;DHT22;31077;50.872;4.352;2022-12-18T06:31:11;22.30;24.30
45343;DHT22;31077;50.872;4.352;2022-12-18T06:33:37;22.20;24.20
45343;DHT22;31077;50.872;4.352;2022-12-18T06:36:09;22.20;24.20
45343;DHT22;31077;50.872;4.352;2022-12-18T06:38:37;22.20;24.20
45343;DHT22;31077;50.872;4.352;2022-12-18T06:41:10;22.30;24.30
45343;DHT22;31077;50.872;4.352;2022-12-18T06:43:36;21.80;24.10
45343;DHT22;31077;50.872;4.352;2022-12-18T06:46:03;21.70;23.90
45343;DHT22;31077;50.872;4.352;2022-12-18T06:48:29;22.20;24.20
45343;DHT22;31077;50.872;4.352;2022-12-18T06:50:54;22.30;24.20
45343;DHT22;31077;50.872;4.352;2022-12-18T06:53:20;22.20;24.20
45343;DHT22;31077;50.872;4.352;2022-12-18T06:55:46;22.30;24.20
45343;DHT22;31077;50.872;4.352;2022-12-18T06:58:12;22.30;24.20
45343;DHT22;31077;50.872;4.352;2022-12-18T07:00:38;22.30;24.10
45343;DHT22;31077;50.872;4.352;2022-12-18T07:03:04;22.20;24.10
45343;DHT22;31077;50.872;4.352;2022-12-18T07:05:29;22.20;24.10
45343;DHT22;31077;50.872;4.352;2022-12-18T07:07:55;22.30;24.20
45343;DHT22;31077;50.872;4.352;2022-12-18T07:10:21;22.20;24.10
45343;DHT22;31077;50.872;4.352;2022-12-18T07:12:47;22.20;24.10
45343;DHT22;31077;50.872;4.352;2022-12-18T07:15:12;22.20;24.10
45343;DHT22;31077;50.872;4.352;2022-12-18T07:17:38;22.10;24.00
45343;DHT22;31077;50.872;4.352;2022-12-18T07:20:04;22.30;24.10
45343;DHT22;31077;50.872;4.352;2022-12-18T07:22:30;22.20;24.10
45343;DHT22;31077;50.872;4.352;2022-12-18T07:24:56;22.20;24.10
45343;DHT22;31077;50.872;4.352;2022-12-18T07:27:22;22.30;24.10
45343;DHT22;31077;50.872;4.352;2022-12-18T07:29:48;22.30;24.10
45343;DHT22;31077;50.872;4.352;2022-12-18T07:32:14;20.90;23.60
45343;DHT22;31077;50.872;4.352;2022-12-18T07:34:40;22.10;24.00
45343;DHT22;31077;50.872;4.352;2022-12-18T07:37:05;22.20;24.10
45343;DHT22;31077;50.872;4.352;2022-12-18T07:39:31;22.20;24.10
45343;DHT22;31077;50.872;4.352;2022-12-18T07:41:57;22.20;24.00
45343;DHT22;31077;50.872;4.352;2022-12-18T07:44:43;22.20;24.00
45343;DHT22;31077;50.872;4.352;2022-12-18T07:47:09;22.20;24.00
45343;DHT22;31077;50.872;4.352;2022-12-18T07:49:36;22.20;24.60
45343;DHT22;31077;50.872;4.352;2022-12-18T07:52:02;22.30;24.10
45343;DHT22;31077;50.872;4.352;2022-12-18T07:54:28;22.20;23.90
45343;DHT22;31077;50.872;4.352;2022-12-18T07:56:54;22.30;24.10
45343;DHT22;31077;50.872;4.352;2022-12-18T07:59:19;21.80;23.70
45343;DHT22;31077;50.872;4.352;2022-12-18T08:01:45;22.20;24.00
45343;DHT22;31077;50.872;4.352;2022-12-18T08:04:11;22.20;24.00
45343;DHT22;31077;50.872;4.352;2022-12-18T08:06:37;22.20;24.00
45343;DHT22;31077;50.872;4.352;2022-12-18T08:09:03;22.20;23.90
45343;DHT22;31077;50.872;4.352;2022-12-18T08:11:29;22.20;24.00
45343;DHT22;31077;50.872;4.352;2022-12-18T08:13:55;22.10;23.90
45343;DHT22;31077;50.872;4.352;2022-12-18T08:16:22;22.20;23.90
45343;DHT22;31077;50.872;4.352;2022-12-18T08:18:48;22.20;23.90
45343;DHT22;31077;50.872;4.352;2022-12-18T08:21:21;22.20;24.00
45343;DHT22;31077;50.872;4.352;2022-12-18T08:23:49;22.20;23.90
45343;DHT22;31077;50.872;4.352;2022-12-18T08:26:15;21.40;23.60
45343;DHT22;31077;50.872;4.352;2022-12-18T08:28:41;22.30;23.90
45343;DHT22;31077;50.872;4.352;2022-12-18T08:31:08;22.10;23.90
45343;DHT22;31077;50.872;4.352;2022-12-18T08:33:34;22.30;24.00
45343;DHT22;31077;50.872;4.352;2022-12-18T08:36:01;22.20;23.90
45343;DHT22;31077;50.872;4.352;2022-12-18T08:38:27;22.20;24.00
45343;DHT22;31077;50.872;4.352;2022-12-18T08:41:08;22.20;23.90
45343;DHT22;31077;50.872;4.352;2022-12-18T08:43:34;22.30;24.00
45343;DHT22;31077;50.872;4.352;2022-12-18T08:46:20;22.30;24.00
45343;DHT22;31077;50.872;4.352;2022-12-18T08:48:46;22.20;23.90
45343;DHT22;31077;50.872;4.352;2022-12-18T08:51:12;22.20;24.00
45343;DHT22;31077;50.872;4.352;2022-12-18T08:53:38;22.20;24.00
45343;DHT22;31077;50.872;4.352;2022-12-18T08:56:05;22.30;24.00
45343;DHT22;31077;50.872;4.352;2022-12-18T08:58:31;22.10;23.90
45343;DHT22;31077;50.872;4.352;2022-12-18T09:01:00;22.30;24.10
45343;DHT22;31077;50.872;4.352;2022-12-18T09:03:27;22.30;24.10
45343;DHT22;31077;50.872;4.352;2022-12-18T09:05:53;22.30;24.10
45343;DHT22;31077;50.872;4.352;2022-12-18T09:08:19;22.10;24.00
45343;DHT22;31077;50.872;4.352;2022-12-18T09:10:46;22.10;24.00
45343;DHT22;31077;50.872;4.352;2022-12-18T09:13:16;20.90;23.50
45343;DHT22;31077;50.872;4.352;2022-12-18T09:15:46;22.10;24.00
45343;DHT22;31077;50.872;4.352;2022-12-18T09:18:13;22.10;24.00
45343;DHT22;31077;50.872;4.352;2022-12-18T09:20:40;22.20;24.00
45343;DHT22;31077;50.872;4.352;2022-12-18T09:23:06;21.30;23.60
45343;DHT22;31077;50.872;4.352;2022-12-18T09:25:33;20.70;23.40
45343;DHT22;31077;50.872;4.352;2022-12-18T09:28:02;21.80;23.90
45343;DHT22;31077;50.872;4.352;2022-12-18T09:30:28;22.30;24.10
45343;DHT22;31077;50.872;4.352;2022-12-18T09:32:54;22.20;24.10
45343;DHT22;31077;50.872;4.352;2022-12-18T09:35:20;22.30;24.10
45343;DHT22;31077;50.872;4.352;2022-12-18T09:37:46;22.30;24.00
45343;DHT22;31077;50.872;4.352;2022-12-18T09:40:16;22.20;24.00
45343;DHT22;31077;50.872;4.352;2022-12-18T09:42:47;22.20;24.10
45343;DHT22;31077;50.872;4.352;2022-12-18T09:45:15;22.20;24.10
45343;DHT22;31077;50.872;4.352;2022-12-18T09:47:43;22.20;24.10
45343;DHT22;31077;50.872;4.352;2022-12-18T09:50:34;22.30;24.10
45343;DHT22;31077;50.872;4.352;2022-12-18T09:53:05;22.30;24.10
45343;DHT22;31077;50.872;4.352;2022-12-18T09:55:38;22.20;24.10
45343;DHT22;31077;50.872;4.352;2022-12-18T10:00:46;22.30;24.20
45343;DHT22;31077;50.872;4.352;2022-12-18T10:03:14;22.20;24.10
45343;DHT22;31077;50.872;4.352;2022-12-18T10:06:05;22.30;24.10
45343;DHT22;31077;50.872;4.352;2022-12-18T10:11:41;22.30;24.10
45343;DHT22;31077;50.872;4.352;2022-12-18T10:17:16;22.30;24.10
45343;DHT22;31077;50.872;4.352;2022-12-18T10:19:48;22.30;24.10
45343;DHT22;31077;50.872;4.352;2022-12-18T10:22:23;22.30;24.10
45343;DHT22;31077;50.872;4.352;2022-12-18T10:27:18;22.30;24.10
45343;DHT22;31077;50.872;4.352;2022-12-18T10:29:47;22.30;24.20
45343;DHT22;31077;50.872;4.352;2022-12-18T10:32:17;22.20;24.10
45343;DHT22;31077;50.872;4.352;2022-12-18T10:34:48;21.50;23.80
45343;DHT22;31077;50.872;4.352;2022-12-18T10:37:19;22.40;24.20
45343;DHT22;31077;50.872;4.352;2022-12-18T10:40:32;22.30;24.20
45343;DHT22;31077;50.872;4.352;2022-12-18T10:42:33;20.80;23.60
45343;DHT22;31077;50.872;4.352;2022-12-18T10:45:14;22.40;24.30
45343;DHT22;31077;50.872;4.352;2022-12-18T10:47:48;22.20;24.10
45343;DHT22;31077;50.872;4.352;2022-12-18T10:50:30;22.30;24.20
45343;DHT22;31077;50.872;4.352;2022-12-18T10:53:02;22.20;24.20
45343;DHT22;31077;50.872;4.352;2022-12-18T10:55:34;22.20;24.20
45343;DHT22;31077;50.872;4.352;2022-12-18T10:58:37;22.20;24.10
45343;DHT22;31077;50.872;4.352;2022-12-18T11:01:14;22.30;24.20
45343;DHT22;31077;50.872;4.352;2022-12-18T11:06:22;22.30;24.30
45343;DHT22;31077;50.872;4.352;2022-12-18T11:09:22;22.20;24.20
45343;DHT22;31077;50.872;4.352;2022-12-18T11:11:56;22.30;24.20
45343;DHT22;31077;50.872;4.352;2022-12-18T11:16:55;22.20;24.30
45343;DHT22;31077;50.872;4.352;2022-12-18T11:19:32;22.30;24.30
45343;DHT22;31077;50.872;4.352;2022-12-18T11:21:59;22.40;24.40
45343;DHT22;31077;50.872;4.352;2022-12-18T11:24:35;22.30;24.30
45343;DHT22;31077;50.872;4.352;2022-12-18T11:27:04;22.20;24.40
45343;DHT22;31077;50.872;4.352;2022-12-18T11:29:34;22.40;24.40
45343;DHT22;31077;50.872;4.352;2022-12-18T11:34:48;22.40;24.40
45343;DHT22;31077;50.872;4.352;2022-12-18T11:37:15;22.20;24.40
45343;DHT22;31077;50.872;4.352;2022-12-18T11:40:17;22.40;24.50
45343;DHT22;31077;50.872;4.352;2022-12-18T11:45:55;22.30;24.50
45343;DHT22;31077;50.872;4.352;2022-12-18T11:48:27;22.30;24.50
45343;DHT22;31077;50.872;4.352;2022-12-18T11:50:57;22.40;24.60
45343;DHT22;31077;50.872;4.352;2022-12-18T11:53:26;21.40;24.20
45343;DHT22;31077;50.872;4.352;2022-12-18T11:59:02;22.20;24.50
45343;DHT22;31077;50.872;4.352;2022-12-18T12:07:11;22.30;24.50
45343;DHT22;31077;50.872;4.352;2022-12-18T12:12:12;22.30;24.60
45343;DHT22;31077;50.872;4.352;2022-12-18T12:17:34;22.30;24.80
45343;DHT22;31077;50.872;4.352;2022-12-18T12:31:38;22.40;24.90
45343;DHT22;31077;50.872;4.352;2022-12-18T12:39:39;22.30;25.00
45343;DHT22;31077;50.872;4.352;2022-12-18T12:42:16;22.40;25.00
45343;DHT22;31077;50.872;4.352;2022-12-18T12:45:04;22.30;25.00
45343;DHT22;31077;50.872;4.352;2022-12-18T12:47:35;22.40;25.10
45343;DHT22;31077;50.872;4.352;2022-12-18T12:50:05;22.40;25.20
45343;DHT22;31077;50.872;4.352;2022-12-18T12:52:59;22.40;25.20
45343;DHT22;31077;50.872;4.352;2022-12-18T12:55:28;22.40;25.20
45343;DHT22;31077;50.872;4.352;2022-12-18T12:58:06;22.40;25.70
45343;DHT22;31077;50.872;4.352;2022-12-18T13:00:44;22.30;25.20
45343;DHT22;31077;50.872;4.352;2022-12-18T13:03:38;22.40;25.30
45343;DHT22;31077;50.872;4.352;2022-12-18T13:06:37;22.40;25.30
45343;DHT22;31077;50.872;4.352;2022-12-18T13:09:05;22.40;25.30
45343;DHT22;31077;50.872;4.352;2022-12-18T13:11:37;22.40;25.30
45343;DHT22;31077;50.872;4.352;2022-12-18T13:14:27;22.40;25.40
45343;DHT22;31077;50.872;4.352;2022-12-18T13:17:21;22.40;25.40
45343;DHT22;31077;50.872;4.352;2022-12-18T13:19:51;22.40;25.40
45343;DHT22;31077;50.872;4.352;2022-12-18T13:22:29;22.40;25.40
45343;DHT22;31077;50.872;4.352;2022-12-18T13:24:56;22.40;25.40
45343;DHT22;31077;50.872;4.352;2022-12-18T13:27:55;22.40;25.40
45343;DHT22;31077;50.872;4.352;2022-12-18T13:43:34;22.40;25.70
45343;DHT22;31077;50.872;4.352;2022-12-18T13:46:02;22.40;25.80
45343;DHT22;31077;50.872;4.352;2022-12-18T13:48:32;22.50;26.00
45343;DHT22;31077;50.872;4.352;2022-12-18T13:51:10;22.40;26.80
45343;DHT22;31077;50.872;4.352;2022-12-18T13:54:02;22.40;27.00
45343;DHT22;31077;50.872;4.352;2022-12-18T13:56:33;22.50;27.40
45343;DHT22;31077;50.872;4.352;2022-12-18T14:02:15;22.40;27.30
45343;DHT22;31077;50.872;4.352;2022-12-18T14:04:47;22.40;27.40
45343;DHT22;31077;50.872;4.352;2022-12-18T14:07:32;22.60;27.50
45343;DHT22;31077;50.872;4.352;2022-12-18T14:12:55;22.60;27.50
45343;DHT22;31077;50.872;4.352;2022-12-18T14:15:43;21.80;27.20
45343;DHT22;31077;50.872;4.352;2022-12-18T14:18:36;22.50;27.50
45343;DHT22;31077;50.872;4.352;2022-12-18T14:21:30;22.50;27.60
45343;DHT22;31077;50.872;4.352;2022-12-18T14:24:20;22.50;27.50
45343;DHT22;31077;50.872;4.352;2022-12-18T14:27:24;22.40;27.40
45343;DHT22;31077;50.872;4.352;2022-12-18T14:33:56;23.10;27.70
45343;DHT22;31077;50.872;4.352;2022-12-18T14:36:38;22.40;28.00
45343;DHT22;31077;50.872;4.352;2022-12-18T14:39:17;22.50;27.50
45343;DHT22;31077;50.872;4.352;2022-12-18T14:41:45;22.40;27.70
45343;DHT22;31077;50.872;4.352;2022-12-18T14:44:19;22.40;27.60
45343;DHT22;31077;50.872;4.352;2022-12-18T14:46:51;22.40;27.60
45343;DHT22;31077;50.872;4.352;2022-12-18T14:49:51;22.40;27.60
45343;DHT22;31077;50.872;4.352;2022-12-18T14:52:38;24.10;28.40
45343;DHT22;31077;50.872;4.352;2022-12-18T14:55:05;22.60;27.80
45343;DHT22;31077;50.872;4.352;2022-12-18T14:57:36;22.50;27.70
45343;DHT22;31077;50.872;4.352;2022-12-18T15:00:15;22.50;27.80
45343;DHT22;31077;50.872;4.352;2022-12-18T15:03:14;22.40;27.80
45343;DHT22;31077;50.872;4.352;2022-12-18T15:12:46;22.40;27.70
45343;DHT22;31077;50.872;4.352;2022-12-18T15:15:57;22.40;27.80
45343;DHT22;31077;50.872;4.352;2022-12-18T15:18:43;22.50;27.80
45343;DHT22;31077;50.872;4.352;2022-12-18T15:21:44;22.40;27.80
45343;DHT22;31077;50.872;4.352;2022-12-18T15:24:46;22.50;27.70
45343;DHT22;31077;50.872;4.352;2022-12-18T15:27:54;22.40;27.70
45343;DHT22;31077;50.872;4.352;2022-12-18T15:30:28;22.50;27.80
45343;DHT22;31077;50.872;4.352;2022-12-18T15:36:07;22.40;27.70
45343;DHT22;31077;50.872;4.352;2022-12-18T15:38:49;22.50;27.70
45343;DHT22;31077;50.872;4.352;2022-12-18T15:41:26;20.50;26.90
45343;DHT22;31077;50.872;4.352;2022-12-18T15:44:44;22.50;27.70
45343;DHT22;31077;50.872;4.352;2022-12-18T15:50:05;22.50;27.70
45343;DHT22;31077;50.872;4.352;2022-12-18T15:52:40;22.40;27.50
45343;DHT22;31077;50.872;4.352;2022-12-18T15:55:21;22.40;28.30
45343;DHT22;31077;50.872;4.352;2022-12-18T15:58:08;22.30;27.60
45343;DHT22;31077;50.872;4.352;2022-12-18T16:00:35;22.50;27.70
45343;DHT22;31077;50.872;4.352;2022-12-18T16:03:03;22.40;27.80
45343;DHT22;31077;50.872;4.352;2022-12-18T16:05:30;21.10;27.20
45343;DHT22;31077;50.872;4.352;2022-12-18T16:07:56;22.50;27.70
45343;DHT22;31077;50.872;4.352;2022-12-18T16:10:22;22.40;27.70
45343;DHT22;31077;50.872;4.352;2022-12-18T16:12:49;22.50;27.70
45343;DHT22;31077;50.872;4.352;2022-12-18T16:15:16;22.40;27.60
45343;DHT22;31077;50.872;4.352;2022-12-18T16:17:43;22.30;27.60
45343;DHT22;31077;50.872;4.352;2022-12-18T16:20:15;22.60;27.80
45343;DHT22;31077;50.872;4.352;2022-12-18T16:22:42;22.50;27.60
45343;DHT22;31077;50.872;4.352;2022-12-18T16:25:25;22.50;27.60
45343;DHT22;31077;50.872;4.352;2022-12-18T16:27:52;22.50;27.50
45343;DHT22;31077;50.872;4.352;2022-12-18T16:30:26;22.50;27.50
45343;DHT22;31077;50.872;4.352;2022-12-18T16:32:54;21.30;27.00
45343;DHT22;31077;50.872;4.352;2022-12-18T16:35:20;22.50;27.40
45343;DHT22;31077;50.872;4.352;2022-12-18T16:37:46;22.60;27.40
45343;DHT22;31077;50.872;4.352;2022-12-18T16:40:14;22.50;27.40
45343;DHT22;31077;50.872;4.352;2022-12-18T16:42:41;22.50;27.50
45343;DHT22;31077;50.872;4.352;2022-12-18T16:45:09;22.40;27.40
45343;DHT22;31077;50.872;4.352;2022-12-18T16:47:36;22.40;27.40
45343;DHT22;31077;50.872;4.352;2022-12-18T16:50:03;22.40;27.30
45343;DHT22;31077;50.872;4.352;2022-12-18T16:52:29;22.40;27.30
45343;DHT22;31077;50.872;4.352;2022-12-18T16:54:55;22.40;27.20
45343;DHT22;31077;50.872;4.352;2022-12-18T16:57:21;22.50;27.30
45343;DHT22;31077;50.872;4.352;2022-12-18T16:59:47;22.50;27.40
45343;DHT22;31077;50.872;4.352;2022-12-18T17:02:16;22.50;27.30
45343;DHT22;31077;50.872;4.352;2022-12-18T17:04:44;23.00;27.70
45343;DHT22;31077;50.872;4.352;2022-12-18T17:07:10;22.40;27.40
45343;DHT22;31077;50.872;4.352;2022-12-18T17:09:37;22.40;27.30
45343;DHT22;31077;50.872;4.352;2022-12-18T17:12:04;22.40;27.40
45343;DHT22;31077;50.872;4.352;2022-12-18T17:14:31;22.40;27.40
45343;DHT22;31077;50.872;4.352;2022-12-18T17:16:57;22.40;27.30
45343;DHT22;31077;50.872;4.352;2022-12-18T17:19:24;22.30;27.40
45343;DHT22;31077;50.872;4.352;2022-12-18T17:21:51;22.40;27.60
45343;DHT22;31077;50.872;4.352;2022-12-18T17:24:17;22.40;27.50
45343;DHT22;31077;50.872;4.352;2022-12-18T17:26:43;22.40;27.40
45343;DHT22;31077;50.872;4.352;2022-12-18T17:29:13;22.40;27.50
45343;DHT22;31077;50.872;4.352;2022-12-18T17:31:39;22.50;27.60
45343;DHT22;31077;50.872;4.352;2022-12-18T17:34:06;22.40;27.50
45343;DHT22;31077;50.872;4.352;2022-12-18T17:36:32;22.50;27.60
45343;DHT22;31077;50.872;4.352;2022-12-18T17:39:00;22.50;27.60
45343;DHT22;31077;50.872;4.352;2022-12-18T17:41:27;22.60;27.60
45343;DHT22;31077;50.872;4.352;2022-12-18T17:44:00;22.60;27.60
45343;DHT22;31077;50.872;4.352;2022-12-18T17:46:27;22.40;27.50
45343;DHT22;31077;50.872;4.352;2022-12-18T17:48:58;21.20;27.10
45343;DHT22;31077;50.872;4.352;2022-12-18T17:51:24;22.50;27.60
45343;DHT22;31077;50.872;4.352;2022-12-18T17:53:50;21.20;27.00